Billings, MT

9:05 PM MDT on September 01, 2014 (GMT -0600)
South of Castle Rock Park | Change Station
CLOSE
Current Station
Personal Weather Station
Location: Billings, MT
Elevation: 3297 ft
Nearby Weather Stations

Elev 3297 ft 45.82 °N, 108.50 °W | Updated 8 seconds ago

Partly Cloudy
Partly Cloudy
65.2 °F
Feels Like 65.2 °F
N
0.0
Wind Variable Wind from West
Gusts 0.0 mph

Today
High -- | Low -- °F
--% Chance of Precip.
Yesterday
High -- | Low -- °F
Precip. -- in
6:35 AM 7:51 PM
Waxing Crescent, 47% visible
Pressure 29.89 in
Visibility 10.0 miles
Clouds Few 10000 ft
Dew Point 41 °F
Humidity 41%
Rainfall 0.00 in
Snow Depth Not available.
UV 0 out of 12
Pollen 7.20 out of 12
Air Quality Not available.
Flu Activity Not available.
METAR KBIL 020253Z 00000KT 10SM FEW100 20/01 A2994 RMK AO2 SLP121 T02000011 53005

More Conditions Fewer Conditions

Pressure 29.89 in
Visibility 10.0 miles
Clouds Few 10000 ft
Dew Point 41 °F
Humidity 41%
Rainfall 0.00 in
Snow Depth Not available.
UV 0 out of 12
Pollen 7.20 out of 12
Air Quality Not available.
Flu Activity Not available.
METAR KBIL 020253Z 00000KT 10SM FEW100 20/01 A2994 RMK AO2 SLP121 T02000011 53005

More Conditions Fewer Conditions

10-Day Weather Forecast

Almanac

Astronomy

Sep. 01, 2014 Rise Set
Actual Time 6:35 AM MDT 7:51 PM MDT
Civil Twilight 6:04 AM MDT 8:22 PM MDT
Nautical Twilight 5:27 AM MDT 8:59 PM MDT
Astronomical Twilight 4:47 AM MDT 9:38 PM MDT
Moon 1:45 PM MDT (9/1) 11:34 PM MDT (9/1)
Length of Visible Light 14h 18m
Length of Day
13h 16m
Tomorrow will be 3m 7s shorter.
Waxing Crescent, 47% of the Moon is Illuminated
Today
Waxing Crescent
Sep 2
First Quarter
Sep 8
Full
Sep 15
Last Quarter
Sep 24
New

Today's Extremes

State Highs State Lows

Community

WunderPhotos

Upload Photos

1,749,537 photos uploaded!

WunderBlogs® & News

Nearby

Snow Depth

Station Depth Elevation
Cole Creek 0 in 7850 ft
Burnt Mountain 0 in 5880 ft
Crystal Lake 0 in 6050 ft
White Mill 1 in 8700 ft
Fisher Creek 0 in 9100 ft

Earthquake Activity

City Distance Mag. Time & Date
No recent earthquake activity has been reported nearby.
Minimum magnitude displayed is 2.5.

Coastal Water Temperatures

Place Temperature
No Stations Reporting

Nearby Weather Stations